Time;durP1;ratioP1;P1;durP2;ratioP2;P2;SDS_P1;SDS_P2;PMS_P1;PMS_P2;Temp;Humidity;BMP_temperature;BMP_pressure;BME280_temperature;BME280_humidity;BME280_pressure;Samples;Min_cycle;Max_cycle;Signal;HPM_P1;HPM_P2
2022/03/28 00:00:46;;;;;;;11.20;6.20;;;21.90;47.20;;;;;;216051;1293;25521;-51
2022/03/28 00:05:53;;;;;;;11.20;5.90;;;22.00;47.30;;;;;;216078;1293;24286;-48
2022/03/28 00:10:57;;;;;;;12.70;6.80;;;22.00;46.90;;;;;;215313;1293;22749;-48
2022/03/28 00:16:00;;;;;;;10.40;6.10;;;22.00;47.00;;;;;;215879;1294;22567;-52
2022/03/28 00:21:05;;;;;;;11.10;6.30;;;22.00;46.90;;;;;;215997;1294;22596;-51
2022/03/28 00:26:08;;;;;;;11.80;7.00;;;22.00;46.80;;;;;;215858;1293;25412;-48
2022/03/28 00:31:12;;;;;;;11.30;6.80;;;21.90;46.60;;;;;;215731;1293;23093;-50
2022/03/28 00:36:16;;;;;;;13.60;7.10;;;22.00;47.00;;;;;;216176;1293;22577;-53
2022/03/28 00:41:20;;;;;;;10.90;6.70;;;21.90;46.50;;;;;;215997;1293;22582;-54
2022/03/28 00:46:24;;;;;;;15.10;6.70;;;21.90;46.90;;;;;;215951;1293;25292;-48
2022/03/28 00:51:28;;;;;;;13.00;7.20;;;21.80;47.30;;;;;;215724;1293;25280;-49
2022/03/28 00:56:32;;;;;;;12.00;6.90;;;21.80;47.20;;;;;;216217;1293;22585;-50
2022/03/28 01:01:36;;;;;;;11.20;6.60;;;21.80;47.20;;;;;;215932;1292;24327;-48
2022/03/28 01:06:40;;;;;;;12.60;7.00;;;21.70;47.30;;;;;;216029;1293;22627;-53
2022/03/28 01:11:46;;;;;;;12.50;7.40;;;21.70;47.40;;;;;;216191;1293;22658;-47
2022/03/28 01:22:12;;;;;;;10.80;6.90;;;21.60;47.60;;;;;;216017;1293;22572;-51
2022/03/28 01:27:16;;;;;;;10.50;6.80;;;21.60;47.70;;;;;;215981;1293;24379;-54
2022/03/28 01:32:19;;;;;;;14.90;8.80;;;21.60;47.60;;;;;;215938;1294;22557;-50
2022/03/28 01:37:23;;;;;;;12.10;7.30;;;21.60;47.30;;;;;;215782;1293;24102;-52
2022/03/28 01:42:27;;;;;;;12.00;7.70;;;21.60;47.50;;;;;;215898;1294;22579;-52
2022/03/28 01:47:33;;;;;;;12.70;7.30;;;21.60;47.00;;;;;;215481;1295;25400;-50
2022/03/28 01:52:37;;;;;;;12.70;7.80;;;21.60;48.50;;;;;;216162;1293;25299;-53
2022/03/28 01:57:43;;;;;;;15.90;8.60;;;21.60;46.90;;;;;;216115;1294;22567;-50
2022/03/28 02:02:47;;;;;;;14.40;8.90;;;21.70;47.00;;;;;;215982;1293;23101;-51
2022/03/28 02:07:51;;;;;;;12.70;8.30;;;21.70;46.80;;;;;;216025;1294;22561;-50
2022/03/28 02:12:55;;;;;;;15.80;9.20;;;21.70;46.80;;;;;;215939;1293;22614;-52
2022/03/28 02:17:59;;;;;;;15.40;9.30;;;21.70;46.70;;;;;;215750;1293;22566;-58
2022/03/28 02:23:03;;;;;;;14.90;8.40;;;21.60;46.70;;;;;;215996;1293;25287;-51
2022/03/28 02:28:06;;;;;;;14.60;8.50;;;21.60;46.70;;;;;;215905;1293;24157;-51
2022/03/28 02:33:10;;;;;;;14.20;8.20;;;21.60;47.10;;;;;;215800;1293;24451;-49
2022/03/28 02:38:14;;;;;;;11.20;7.20;;;21.60;46.50;;;;;;215899;1294;24299;-49
2022/03/28 02:43:19;;;;;;;11.80;7.40;;;21.60;47.70;;;;;;215499;1296;24373;-53
2022/03/28 02:48:23;;;;;;;15.10;8.90;;;21.50;47.40;;;;;;215839;1293;25299;-50
2022/03/28 02:53:26;;;;;;;12.40;8.00;;;21.50;47.30;;;;;;215931;1293;24990;-50
2022/03/28 02:58:30;;;;;;;14.40;8.50;;;21.50;47.50;;;;;;215740;1293;22579;-50
2022/03/28 03:03:33;;;;;;;13.30;8.20;;;21.50;47.50;;;;;;215958;1293;22627;-49
2022/03/28 03:08:37;;;;;;;14.30;8.30;;;21.40;47.60;;;;;;215346;1293;22634;-48
2022/03/28 03:13:41;;;;;;;14.00;8.60;;;21.40;47.60;;;;;;215973;1294;22567;-52
2022/03/28 03:18:44;;;;;;;16.60;8.90;;;21.30;47.70;;;;;;215837;1293;24293;-52
2022/03/28 03:23:48;;;;;;;13.30;8.30;;;21.30;48.20;;;;;;215744;1293;22563;-52
2022/03/28 03:28:54;;;;;;;13.60;8.70;;;21.30;47.50;;;;;;215735;1293;25308;-51
2022/03/28 03:33:57;;;;;;;14.60;8.70;;;21.30;47.30;;;;;;216128;1294;24471;-48
2022/03/28 03:39:03;;;;;;;14.10;8.30;;;21.40;47.20;;;;;;216019;1294;22564;-52
2022/03/28 03:44:07;;;;;;;13.60;8.70;;;21.40;47.10;;;;;;215511;1293;22776;-47
2022/03/28 03:49:11;;;;;;;15.40;9.20;;;21.40;47.10;;;;;;216143;1293;25299;-50
2022/03/28 03:54:14;;;;;;;12.80;8.70;;;21.40;47.00;;;;;;215194;1293;23025;-48
2022/03/28 03:59:18;;;;;;;13.20;8.20;;;21.40;46.80;;;;;;215349;1296;25357;-49
2022/03/28 04:04:22;;;;;;;12.60;8.40;;;21.40;47.20;;;;;;215889;1293;25276;-49
2022/03/28 04:09:25;;;;;;;16.70;9.60;;;21.40;47.00;;;;;;215871;1294;22589;-49
2022/03/28 04:14:29;;;;;;;14.50;8.60;;;21.40;46.90;;;;;;215679;1293;22600;-50
2022/03/28 04:19:32;;;;;;;14.00;8.80;;;21.40;46.80;;;;;;215536;1293;22988;-48
2022/03/28 04:24:36;;;;;;;17.30;9.50;;;21.40;46.70;;;;;;215775;1294;25401;-49
2022/03/28 04:29:40;;;;;;;16.00;9.70;;;21.40;47.10;;;;;;216001;1294;25396;-47
2022/03/28 04:34:44;;;;;;;17.20;10.00;;;21.40;46.90;;;;;;216006;1294;24329;-49
2022/03/28 04:39:48;;;;;;;14.10;9.20;;;21.30;46.60;;;;;;215396;1293;24434;-52
2022/03/28 04:44:51;;;;;;;16.10;9.80;;;21.30;47.30;;;;;;216105;1294;22560;-52
2022/03/28 04:49:55;;;;;;;14.20;9.00;;;21.30;47.70;;;;;;214945;1293;288487;-50
2022/03/28 04:54:59;;;;;;;13.30;8.30;;;21.30;47.80;;;;;;216128;1294;22601;-49
2022/03/28 05:00:06;;;;;;;16.30;8.70;;;21.20;47.60;;;;;;215274;1296;22569;-49
2022/03/28 05:05:11;;;;;;;17.00;9.40;;;21.20;47.70;;;;;;215908;1293;25296;-50
2022/03/28 05:10:14;;;;;;;13.50;9.10;;;21.20;47.60;;;;;;215877;1294;24342;-49
2022/03/28 05:15:18;;;;;;;14.70;9.30;;;21.10;47.60;;;;;;216076;1294;22567;-51
2022/03/28 05:20:23;;;;;;;15.60;10.00;;;21.10;47.60;;;;;;215625;1296;25249;-49
2022/03/28 05:25:32;;;;;;;16.10;10.10;;;21.00;47.60;;;;;;215750;1293;24281;-49
2022/03/28 05:30:36;;;;;;;14.20;8.60;;;21.10;47.50;;;;;;215961;1294;22560;-50
2022/03/28 05:35:43;;;;;;;15.90;9.20;;;21.10;47.20;;;;;;215942;1294;22579;-52
2022/03/28 05:40:46;;;;;;;15.40;9.30;;;21.10;47.20;;;;;;215911;1293;22746;-49
2022/03/28 05:45:52;;;;;;;16.10;9.80;;;21.20;47.10;;;;;;215816;1294;22665;-52
2022/03/28 05:50:56;;;;;;;15.40;9.80;;;21.20;47.30;;;;;;215997;1294;22635;-50
2022/03/28 05:56:03;;;;;;;15.70;9.60;;;21.20;46.70;;;;;;216249;1293;22579;-52
2022/03/28 06:01:08;;;;;;;16.30;9.80;;;21.20;47.00;;;;;;215797;1293;22716;-49
2022/03/28 06:06:12;;;;;;;19.40;10.00;;;21.30;47.20;;;;;;215823;1294;22683;-52
2022/03/28 06:11:17;;;;;;;17.70;9.00;;;21.30;47.70;;;;;;215937;1293;25358;-51
2022/03/28 06:16:20;;;;;;;18.20;10.00;;;21.30;47.90;;;;;;215241;1293;22726;-56
2022/03/28 06:21:24;;;;;;;17.60;9.20;;;21.30;47.90;;;;;;215644;1294;22702;-52
2022/03/28 06:26:28;;;;;;;21.10;9.30;;;21.20;48.20;;;;;;215739;1294;22588;-54
2022/03/28 06:31:31;;;;;;;20.30;9.50;;;21.30;47.50;;;;;;215919;1293;22592;-55
2022/03/28 06:36:36;;;;;;;20.00;9.40;;;21.30;48.40;;;;;;215764;1293;22777;-57
2022/03/28 06:41:42;;;;;;;19.20;10.80;;;21.30;49.10;;;;;;215689;1294;22850;-56
2022/03/28 06:46:46;;;;;;;17.80;10.00;;;21.30;49.50;;;;;;215512;1293;25522;-53
2022/03/28 06:51:50;;;;;;;27.00;9.30;;;21.30;49.50;;;;;;215792;1296;22605;-51
2022/03/28 06:56:53;;;;;;;16.70;9.30;;;21.50;50.50;;;;;;215762;1294;22620;-53
2022/03/28 07:01:57;;;;;;;29.70;10.30;;;21.40;49.70;;;;;;215359;1296;22573;-51
2022/03/28 07:07:01;;;;;;;19.40;8.90;;;21.50;50.20;;;;;;215808;1294;27264;-51
2022/03/28 07:12:05;;;;;;;23.70;9.10;;;21.60;50.80;;;;;;215541;1294;26178;-55
2022/03/28 07:17:09;;;;;;;18.20;9.20;;;21.60;49.80;;;;;;215434;1298;22554;-55
2022/03/28 07:22:13;;;;;;;17.60;9.20;;;21.60;49.10;;;;;;218347;1294;22597;-56
2022/03/28 07:27:17;;;;;;;17.00;9.60;;;21.60;48.70;;;;;;215234;1294;24315;-53
2022/03/28 07:32:21;;;;;;;16.80;9.20;;;21.50;48.60;;;;;;215275;1294;22596;-53
2022/03/28 07:37:26;;;;;;;18.20;9.40;;;21.50;48.30;;;;;;215697;1294;22582;-54
2022/03/28 07:42:30;;;;;;;18.00;9.90;;;21.50;48.20;;;;;;215921;1294;26158;-54
2022/03/28 07:47:36;;;;;;;21.50;10.50;;;21.50;47.80;;;;;;215214;1294;25405;-54
2022/03/28 07:52:40;;;;;;;16.40;9.00;;;21.50;48.20;;;;;;216178;1292;24475;-54
2022/03/28 07:57:44;;;;;;;15.10;9.10;;;21.60;48.10;;;;;;215227;1294;25600;-55
2022/03/28 08:02:48;;;;;;;15.40;8.90;;;21.60;47.80;;;;;;215607;1294;22664;-55
2022/03/28 08:07:53;;;;;;;14.40;8.40;;;21.60;47.50;;;;;;215699;1294;25251;-56
2022/03/28 08:12:58;;;;;;;16.30;7.60;;;21.60;47.30;;;;;;215267;1296;25397;-54
2022/03/28 08:18:06;;;;;;;12.30;7.90;;;21.70;47.00;;;;;;215594;1294;22575;-57
2022/03/28 08:23:11;;;;;;;13.60;7.80;;;21.80;46.70;;;;;;215615;1294;22584;-54
2022/03/28 08:28:15;;;;;;;19.00;8.90;;;21.90;46.50;;;;;;215427;1293;24269;-56
2022/03/28 08:33:22;;;;;;;14.70;7.50;;;21.90;46.30;;;;;;215746;1294;22586;-59
2022/03/28 08:38:26;;;;;;;14.20;8.00;;;22.00;46.20;;;;;;215833;1293;22594;-56
2022/03/28 08:43:30;;;;;;;13.70;6.90;;;22.10;46.00;;;;;;215064;1296;22743;-53
2022/03/28 08:48:39;;;;;;;13.50;7.50;;;22.10;45.80;;;;;;215656;1293;24215;-56
2022/03/28 08:53:43;;;;;;;10.30;6.50;;;22.20;45.80;;;;;;215553;1294;22617;-55
2022/03/28 08:58:48;;;;;;;12.70;7.70;;;22.10;45.80;;;;;;215714;1294;22564;-53
2022/03/28 09:03:52;;;;;;;14.70;6.90;;;22.10;45.80;;;;;;215633;1294;22622;-55
2022/03/28 09:09:22;;;;;;;10.20;6.50;;;22.20;46.30;;;;;;215444;1293;25428;-55
2022/03/28 09:14:27;;;;;;;11.60;6.60;;;22.20;45.90;;;;;;215478;1293;22654;-52
2022/03/28 09:19:48;;;;;;;10.50;6.10;;;22.30;45.40;;;;;;215489;1293;25551;-55
2022/03/28 09:25:00;;;;;;;9.20;5.80;;;22.30;45.30;;;;;;215641;1293;25384;-55
2022/03/28 09:30:10;;;;;;;9.00;6.00;;;22.40;45.70;;;;;;215702;1293;24539;-55
2022/03/28 09:35:22;;;;;;;10.50;6.10;;;22.40;45.40;;;;;;215619;1293;25350;-56
2022/03/28 09:40:39;;;;;;;9.70;5.60;;;22.50;45.60;;;;;;215389;1293;24263;-55
2022/03/28 09:45:53;;;;;;;10.60;6.50;;;22.60;45.20;;;;;;215610;1293;24338;-54
2022/03/28 09:51:03;;;;;;;10.00;5.50;;;22.60;45.30;;;;;;215796;1293;25077;-54
2022/03/28 09:56:11;;;;;;;9.30;6.10;;;22.70;45.70;;;;;;215443;1293;24262;-55
2022/03/28 10:01:21;;;;;;;9.00;5.10;;;22.70;45.60;;;;;;215771;1293;25469;-58
2022/03/28 10:06:25;;;;;;;9.40;5.40;;;22.70;45.20;;;;;;215865;1293;24316;-56
2022/03/28 10:11:30;;;;;;;7.90;5.00;;;22.70;46.00;;;;;;215606;1294;22608;-55
2022/03/28 10:16:34;;;;;;;8.20;5.10;;;22.80;46.00;;;;;;215712;1294;24374;-56
2022/03/28 10:21:38;;;;;;;8.30;4.60;;;23.00;46.60;;;;;;215195;1293;25418;-56
2022/03/28 10:26:47;;;;;;;8.00;5.10;;;23.00;47.90;;;;;;215715;1294;25381;-56
2022/03/28 10:31:58;;;;;;;8.20;5.10;;;23.00;46.70;;;;;;215653;1293;25524;-56
2022/03/28 10:37:31;;;;;;;6.80;4.50;;;23.00;47.40;;;;;;215725;1294;22612;-57
2022/03/28 10:42:36;;;;;;;7.40;4.50;;;23.00;47.90;;;;;;215653;1293;22586;-57
2022/03/28 10:47:43;;;;;;;7.00;4.50;;;23.00;48.00;;;;;;215822;1293;22600;-56
2022/03/28 10:53:25;;;;;;;8.30;4.30;;;23.10;48.40;;;;;;215873;1293;22567;-55
2022/03/28 10:58:28;;;;;;;;;;;23.10;48.20;;;;;;215635;1294;24872;-48
2022/03/28 11:03:54;;;;;;;6.40;3.90;;;23.10;48.00;;;;;;215008;1293;24444;-54
2022/03/28 11:09:00;;;;;;;7.60;4.30;;;23.20;48.40;;;;;;215750;1293;26572;-57
2022/03/28 11:14:08;;;;;;;6.40;4.60;;;23.20;48.70;;;;;;215759;1293;25521;-57
2022/03/28 11:19:33;;;;;;;7.40;3.80;;;23.30;48.50;;;;;;215387;1293;25588;-57
2022/03/28 11:24:46;;;;;;;7.60;4.00;;;23.30;48.90;;;;;;215747;1293;25414;-58
2022/03/28 11:29:59;;;;;;;6.70;4.20;;;23.30;48.90;;;;;;215507;1294;24504;-57
2022/03/28 11:35:05;;;;;;;6.70;4.40;;;23.30;48.10;;;;;;215343;1296;24271;-59
2022/03/28 11:40:09;;;;;;;7.20;4.30;;;23.30;46.60;;;;;;215797;1293;22809;-53
2022/03/28 11:45:13;;;;;;;7.50;3.90;;;23.40;46.10;;;;;;215803;1294;24263;-55
2022/03/28 11:50:18;;;;;;;5.80;4.00;;;23.40;46.50;;;;;;215295;1293;27752;-54
2022/03/28 11:55:25;;;;;;;6.10;4.00;;;23.50;46.70;;;;;;215777;1293;27343;-53
2022/03/28 12:00:29;;;;;;;6.00;4.10;;;23.50;47.30;;;;;;215863;1294;22669;-53
2022/03/28 12:05:51;;;;;;;5.10;3.60;;;23.50;47.50;;;;;;215708;1293;25601;-49
2022/03/28 12:10:55;;;;;;;6.50;3.90;;;23.50;47.70;;;;;;215283;1293;22761;-50
2022/03/28 12:15:59;;;;;;;6.10;3.70;;;23.50;47.80;;;;;;215775;1294;26925;-47
2022/03/28 12:21:04;;;;;;;6.30;3.80;;;23.50;47.30;;;;;;215895;1293;24218;-47
2022/03/28 12:26:09;;;;;;;7.00;3.90;;;23.60;48.00;;;;;;215770;1294;22629;-53
2022/03/28 12:31:13;;;;;;;6.30;3.30;;;23.60;48.10;;;;;;215682;1293;22880;-52
2022/03/28 12:36:28;;;;;;;6.20;3.50;;;23.60;48.20;;;;;;215914;1293;22665;-50
2022/03/28 12:41:53;;;;;;;6.60;3.30;;;23.60;48.30;;;;;;215658;1293;22732;-50
2022/03/28 12:47:05;;;;;;;5.90;3.90;;;23.60;48.20;;;;;;215682;1293;25740;-45
2022/03/28 12:52:18;;;;;;;5.90;3.20;;;23.60;48.50;;;;;;215756;1293;26546;-51
2022/03/28 12:57:27;;;;;;;7.00;3.80;;;23.60;48.10;;;;;;215827;1293;24307;-54
2022/03/28 13:02:31;;;;;;;5.80;3.70;;;23.70;48.10;;;;;;215775;1293;22564;-50
2022/03/28 13:07:39;;;;;;;6.80;3.40;;;23.70;48.20;;;;;;215701;1293;26532;-52
2022/03/28 13:12:44;;;;;;;5.20;3.40;;;23.70;47.60;;;;;;215783;1293;25612;-50
2022/03/28 13:18:03;;;;;;;7.70;3.00;;;23.70;47.90;;;;;;215871;1293;22683;-53
2022/03/28 13:23:27;;;;;;;5.90;3.40;;;23.70;47.90;;;;;;215851;1293;27090;-46
2022/03/28 13:28:32;;;;;;;4.80;3.30;;;23.70;47.30;;;;;;215697;1294;25283;-48
2022/03/28 13:33:41;;;;;;;;;;;23.70;47.60;;;;;;215508;1293;22545;-56
2022/03/28 13:38:46;;;;;;;5.20;3.00;;;23.60;42.80;;;;;;215289;1293;22664;-56
2022/03/28 13:43:50;;;;;;;6.60;3.10;;;23.50;39.50;;;;;;215843;1293;22561;-58
2022/03/28 13:48:55;;;;;;;8.70;3.30;;;23.50;39.70;;;;;;215541;1293;24316;-56
2022/03/28 13:53:59;;;;;;;4.90;3.50;;;23.40;40.10;;;;;;215587;1293;22831;-52
2022/03/28 13:59:10;;;;;;;4.90;3.20;;;23.30;36.40;;;;;;215924;1293;25286;-54
2022/03/28 14:04:29;;;;;;;8.40;4.00;;;23.30;37.00;;;;;;215536;1293;22940;-56
2022/03/28 14:09:33;;;;;;;8.50;4.30;;;23.30;36.60;;;;;;215867;1293;22588;-54
2022/03/28 14:14:37;;;;;;;11.30;5.30;;;23.10;35.80;;;;;;215672;1293;25385;-55
2022/03/28 14:19:42;;;;;;;18.20;6.20;;;23.20;36.70;;;;;;215269;1293;24339;-52
2022/03/28 14:24:46;;;;;;;20.40;6.10;;;23.20;36.80;;;;;;218564;1293;22565;-52
2022/03/28 14:29:50;;;;;;;10.80;5.00;;;23.20;37.20;;;;;;215197;1293;25614;-52
2022/03/28 14:34:58;;;;;;;12.10;5.80;;;23.30;37.50;;;;;;215212;1293;25330;-55
2022/03/28 14:40:03;;;;;;;10.30;5.60;;;23.30;37.70;;;;;;223076;1293;22229;-54
2022/03/28 14:45:09;;;;;;;18.40;6.30;;;23.10;37.50;;;;;;222682;1293;22449;-53
2022/03/28 14:50:14;;;;;;;13.20;6.80;;;23.20;38.10;;;;;;222602;1293;22570;-53
2022/03/28 14:55:17;;;;;;;18.10;7.50;;;23.20;37.70;;;;;;216267;1293;22741;-49
2022/03/28 15:00:21;;;;;;;19.70;6.70;;;23.00;38.30;;;;;;215252;1293;23101;-49
2022/03/28 15:05:25;;;;;;;10.90;6.20;;;22.90;38.60;;;;;;214853;1296;24278;-49
2022/03/28 15:10:32;;;;;;;15.00;7.10;;;22.70;38.60;;;;;;215431;1293;22603;-55
2022/03/28 15:15:39;;;;;;;16.50;5.00;;;22.80;39.20;;;;;;223073;1292;22503;-55
2022/03/28 15:20:44;;;;;;;12.90;5.60;;;23.20;41.40;;;;;;215323;1293;22553;-53
2022/03/28 15:25:50;;;;;;;16.70;5.50;;;23.40;41.40;;;;;;215988;1293;25422;-53
2022/03/28 15:31:25;;;;;;;13.60;4.70;;;23.40;41.60;;;;;;215368;1293;22814;-54
2022/03/28 15:36:33;;;;;;;11.80;4.20;;;23.50;43.30;;;;;;215516;1293;22614;-55
2022/03/28 15:41:45;;;;;;;16.10;5.20;;;23.50;44.00;;;;;;215584;1293;25559;-54
2022/03/28 15:46:51;;;;;;;41.80;6.40;;;23.60;44.30;;;;;;215591;1294;22582;-51
2022/03/28 15:52:05;;;;;;;22.10;4.70;;;23.60;44.90;;;;;;215956;1293;24425;-54
2022/03/28 15:57:11;;;;;;;14.20;4.10;;;23.30;43.70;;;;;;214942;1296;25379;-51
2022/03/28 16:02:15;;;;;;;15.90;4.70;;;23.20;44.50;;;;;;215569;1293;24300;-50
2022/03/28 16:07:19;;;;;;;14.50;4.30;;;23.20;43.80;;;;;;215194;1293;22567;-52
2022/03/28 16:12:26;;;;;;;16.30;3.90;;;23.20;44.30;;;;;;215151;1296;22791;-47
2022/03/28 16:17:32;;;;;;;12.80;3.60;;;23.10;44.70;;;;;;215709;1293;23563;-50
2022/03/28 16:22:36;;;;;;;18.40;4.30;;;23.10;44.50;;;;;;215797;1294;22775;-51
2022/03/28 16:27:40;;;;;;;17.50;4.10;;;23.10;44.60;;;;;;215779;1293;22593;-52
2022/03/28 16:32:46;;;;;;;12.70;3.80;;;23.00;44.70;;;;;;215607;1293;26964;-47
2022/03/28 16:37:49;;;;;;;11.90;2.90;;;23.00;45.00;;;;;;215562;1293;22566;-51
2022/03/28 16:43:05;;;;;;;9.20;3.00;;;22.90;45.10;;;;;;215674;1293;22686;-49
2022/03/28 16:48:25;;;;;;;21.20;3.90;;;22.80;45.50;;;;;;215557;1293;260005;-52
2022/03/28 16:53:59;;;;;;;21.30;4.50;;;22.90;46.60;;;;;;215323;1293;23091;-47
2022/03/28 16:59:05;;;;;;;26.80;6.30;;;22.90;46.40;;;;;;215482;1293;22835;-52
2022/03/28 17:04:20;;;;;;;34.50;9.80;;;23.10;46.80;;;;;;215850;1293;25351;-48
2022/03/28 17:09:29;;;;;;;49.70;17.70;;;23.10;47.60;;;;;;215825;1293;24354;-51
2022/03/28 17:14:36;;;;;;;56.80;35.10;;;23.10;47.40;;;;;;215552;1292;24162;-51
2022/03/28 17:19:41;;;;;;;70.10;39.60;;;23.00;47.10;;;;;;215182;1293;25474;-54
2022/03/28 17:24:54;;;;;;;69.50;32.50;;;23.00;46.60;;;;;;215550;1293;22946;-53
2022/03/28 17:29:59;;;;;;;69.60;30.40;;;23.00;46.60;;;;;;215430;1293;22584;-55
2022/03/28 17:35:03;;;;;;;70.20;28.10;;;23.10;47.00;;;;;;215695;1293;24408;-50
2022/03/28 17:40:09;;;;;;;50.90;24.80;;;23.10;46.40;;;;;;215544;1294;23114;-50
2022/03/28 17:45:13;;;;;;;51.10;24.80;;;23.10;46.60;;;;;;215880;1293;22677;-49
2022/03/28 17:50:17;;;;;;;49.20;24.50;;;23.10;47.10;;;;;;214887;1293;25501;-54
2022/03/28 17:55:32;;;;;;;51.00;24.70;;;23.20;47.60;;;;;;215870;1293;22569;-57
2022/03/28 18:00:52;;;;;;;42.80;23.20;;;23.20;47.40;;;;;;215741;1293;24335;-51
2022/03/28 18:06:27;;;;;;;49.00;23.60;;;23.10;47.50;;;;;;215564;1293;24462;-54
2022/03/28 18:11:35;;;;;;;53.00;23.60;;;23.20;48.00;;;;;;215400;1293;23204;-55
2022/03/28 18:16:57;;;;;;;64.40;23.40;;;23.20;48.10;;;;;;215656;1293;24452;-47
2022/03/28 18:22:07;;;;;;;58.90;23.10;;;23.20;48.80;;;;;;215480;1293;25411;-50
2022/03/28 18:27:38;;;;;;;55.20;21.40;;;23.10;48.90;;;;;;215578;1293;25370;-49
2022/03/28 18:33:11;;;;;;;52.20;20.20;;;23.20;49.20;;;;;;215409;1293;22626;-48
2022/03/28 18:38:42;;;;;;;49.70;20.60;;;23.30;49.20;;;;;;215619;1293;25529;-48
2022/03/28 18:44:00;;;;;;;46.30;19.70;;;23.20;49.20;;;;;;214951;1295;23275;-52
2022/03/28 18:49:42;;;;;;;45.30;18.80;;;23.20;49.60;;;;;;215712;1294;24462;-49
2022/03/28 18:54:53;;;;;;;42.90;19.50;;;23.20;49.70;;;;;;215668;1293;22586;-50
2022/03/28 19:00:20;;;;;;;43.30;19.10;;;23.20;50.00;;;;;;215642;1293;23733;-49
2022/03/28 19:05:28;;;;;;;44.10;19.00;;;23.20;50.20;;;;;;216115;1293;22558;-53
2022/03/28 19:10:40;;;;;;;57.30;19.30;;;23.20;50.00;;;;;;216082;1293;24389;-51
2022/03/28 19:16:05;;;;;;;40.30;18.20;;;23.20;50.20;;;;;;216042;1293;23033;-54
2022/03/28 19:21:22;;;;;;;35.80;17.50;;;23.20;50.90;;;;;;216053;1294;22576;-49
2022/03/28 19:26:38;;;;;;;41.10;17.00;;;23.10;50.50;;;;;;216027;1293;25792;-51
2022/03/28 19:31:56;;;;;;;48.00;17.70;;;23.10;50.90;;;;;;215579;1294;23995;-50
2022/03/28 19:37:09;;;;;;;49.00;17.70;;;23.10;51.00;;;;;;215779;1293;22732;-55
2022/03/28 19:42:22;;;;;;;45.30;16.40;;;23.20;53.40;;;;;;215226;1296;22632;-52
2022/03/28 19:47:28;;;;;;;34.90;15.70;;;23.30;53.40;;;;;;215587;1293;25429;-48
2022/03/28 19:52:32;;;;;;;37.50;16.40;;;23.20;54.60;;;;;;215730;1293;25338;-51
2022/03/28 19:57:37;;;;;;;46.90;16.00;;;23.10;53.80;;;;;;215822;1293;24281;-48
2022/03/28 20:02:50;;;;;;;32.10;15.50;;;23.20;53.10;;;;;;215202;1296;22573;-46
2022/03/28 20:08:02;;;;;;;34.30;16.30;;;23.10;53.10;;;;;;215704;1293;22586;-45
2022/03/28 20:13:18;;;;;;;31.10;15.90;;;23.10;52.80;;;;;;215716;1293;24779;-46
2022/03/28 20:18:30;;;;;;;32.50;14.30;;;23.00;52.70;;;;;;215793;1293;24463;-47
2022/03/28 20:23:38;;;;;;;25.80;14.00;;;22.90;52.20;;;;;;215785;1294;22594;-48
2022/03/28 20:28:42;;;;;;;25.60;13.40;;;22.90;51.40;;;;;;215326;1293;22591;-45
2022/03/28 20:33:50;;;;;;;28.90;13.00;;;22.90;51.20;;;;;;215654;1293;22590;-45
2022/03/28 20:39:10;;;;;;;24.10;12.70;;;22.80;51.20;;;;;;215797;1293;23909;-45
2022/03/28 20:44:14;;;;;;;25.40;11.80;;;22.80;51.10;;;;;;215741;1293;25604;-46
2022/03/28 20:49:23;;;;;;;26.50;12.50;;;22.80;51.40;;;;;;215223;1293;24472;-47
2022/03/28 20:54:46;;;;;;;25.50;13.00;;;22.70;50.40;;;;;;215531;1294;24271;-45
2022/03/28 20:59:55;;;;;;;26.50;12.50;;;22.80;51.40;;;;;;215831;1292;22585;-45
2022/03/28 21:05:02;;;;;;;27.60;12.60;;;22.80;51.60;;;;;;215534;1294;24269;-44
2022/03/28 21:10:07;;;;;;;24.60;11.10;;;22.80;51.70;;;;;;215528;1293;22595;-48
2022/03/28 21:15:12;;;;;;;24.20;11.50;;;22.80;52.80;;;;;;215518;1293;24377;-47
2022/03/28 21:20:20;;;;;;;21.20;12.00;;;22.90;52.30;;;;;;215602;1293;25761;-46
2022/03/28 21:25:23;;;;;;;21.40;11.70;;;22.80;52.10;;;;;;215663;1293;24353;-46
2022/03/28 21:30:27;;;;;;;21.90;11.30;;;22.80;52.10;;;;;;215361;1293;24345;-45
2022/03/28 21:35:32;;;;;;;21.70;10.60;;;22.80;52.20;;;;;;215688;1293;22592;-49
2022/03/28 21:40:53;;;;;;;19.10;10.10;;;22.70;52.30;;;;;;215581;1293;22702;-48
2022/03/28 21:46:09;;;;;;;21.40;11.40;;;22.70;52.40;;;;;;215185;1293;22879;-46
2022/03/28 21:51:15;;;;;;;20.20;10.30;;;22.70;52.40;;;;;;215424;1293;25661;-52
2022/03/28 21:56:20;;;;;;;20.80;10.60;;;22.60;52.30;;;;;;215662;1293;26683;-46
2022/03/28 22:01:23;;;;;;;21.30;11.40;;;22.60;52.60;;;;;;214933;1296;23953;-47
2022/03/28 22:06:29;;;;;;;18.00;10.40;;;22.60;52.70;;;;;;215116;1294;22597;-46
2022/03/28 22:11:35;;;;;;;20.60;11.00;;;22.60;52.10;;;;;;215489;1292;24801;-46
2022/03/28 22:16:39;;;;;;;15.60;9.70;;;22.50;52.00;;;;;;215884;1293;24299;-46
2022/03/28 22:21:43;;;;;;;17.80;9.40;;;22.50;52.20;;;;;;215833;1293;22573;-45
2022/03/28 22:26:47;;;;;;;17.10;10.40;;;22.60;51.40;;;;;;215859;1294;25346;-45
2022/03/28 22:31:51;;;;;;;16.60;10.50;;;22.60;51.80;;;;;;215671;1293;25637;-46
2022/03/28 22:36:55;;;;;;;22.10;9.70;;;22.50;51.80;;;;;;215829;1294;23543;-45
2022/03/28 22:41:59;;;;;;;18.10;10.00;;;22.50;51.90;;;;;;215629;1293;24427;-46
2022/03/28 22:47:03;;;;;;;16.10;9.60;;;22.50;52.30;;;;;;216134;1293;24273;-47
2022/03/28 22:52:07;;;;;;;17.70;10.10;;;22.50;52.10;;;;;;215882;1294;23988;-46
2022/03/28 22:57:15;;;;;;;20.40;10.10;;;22.40;52.30;;;;;;215807;1294;22713;-49
2022/03/28 23:02:19;;;;;;;16.50;9.80;;;22.40;51.90;;;;;;215236;1296;22624;-52
2022/03/28 23:07:28;;;;;;;15.70;8.80;;;22.40;52.00;;;;;;215796;1293;25273;-49
2022/03/28 23:12:33;;;;;;;15.70;9.30;;;22.40;51.90;;;;;;216017;1294;25426;-46
2022/03/28 23:17:37;;;;;;;14.50;9.50;;;22.30;51.80;;;;;;215849;1293;24266;-45
2022/03/28 23:22:52;;;;;;;12.90;8.40;;;22.30;51.80;;;;;;215672;1293;25292;-45
2022/03/28 23:27:56;;;;;;;14.80;8.90;;;22.30;51.60;;;;;;215941;1294;25416;-46
2022/03/28 23:33:00;;;;;;;16.10;8.30;;;22.40;51.80;;;;;;215743;1294;24361;-46
2022/03/28 23:38:03;;;;;;;16.20;9.40;;;22.30;51.90;;;;;;215361;1293;23972;-47
2022/03/28 23:43:07;;;;;;;16.50;9.20;;;22.30;51.90;;;;;;215549;1294;22764;-49
2022/03/28 23:48:11;;;;;;;15.00;9.70;;;22.30;52.00;;;;;;215838;1293;25287;-45
2022/03/28 23:53:14;;;;;;;13.70;9.10;;;22.20;51.20;;;;;;215938;1293;22547;-46
2022/03/28 23:58:18;;;;;;;13.50;8.60;;;22.20;51.40;;;;;;216106;1294;22598;-47
